createdAt,value
2019-01-24T00:01:54.201Z,7.63
2019-01-24T00:04:21.299Z,7.60
2019-01-24T00:06:53.393Z,7.93
2019-01-24T00:09:23.371Z,7.87
2019-01-24T00:11:54.779Z,8.20
2019-01-24T00:14:27.741Z,7.00
2019-01-24T00:17:03.510Z,6.97
2019-01-24T00:19:30.620Z,7.97
2019-01-24T00:21:57.733Z,6.83
2019-01-24T00:24:27.947Z,7.70
2019-01-24T00:27:00.329Z,6.40
2019-01-24T00:29:27.466Z,8.10
2019-01-24T00:31:54.567Z,7.57
2019-01-24T00:34:23.361Z,7.63
2019-01-24T00:36:50.680Z,7.70
2019-01-24T00:39:17.902Z,8.03
2019-01-24T00:41:44.985Z,7.20
2019-01-24T00:44:12.080Z,7.90
2019-01-24T00:46:39.175Z,7.90
2019-01-24T00:49:09.045Z,6.47
2019-01-24T00:51:37.909Z,7.07
2019-01-24T00:54:05.018Z,6.23
2019-01-24T00:56:34.763Z,8.13
2019-01-24T00:59:01.972Z,6.97
2019-01-24T01:01:29.347Z,7.70
2019-01-24T01:03:56.546Z,8.50
2019-01-24T01:06:25.815Z,8.07
2019-01-24T01:08:54.223Z,7.60
2019-01-24T01:11:22.479Z,8.17
2019-01-24T01:13:50.883Z,8.43
2019-01-24T01:16:18.000Z,7.57
2019-01-24T01:18:46.395Z,8.20
2019-01-24T01:21:15.397Z,7.47
2019-01-24T01:23:42.688Z,8.20
2019-01-24T01:26:11.843Z,8.47
2019-01-24T01:28:39.040Z,7.13
2019-01-24T01:31:06.418Z,8.70
2019-01-24T01:33:33.628Z,7.57
2019-01-24T01:36:02.231Z,6.97
2019-01-24T01:38:29.509Z,7.80
2019-01-24T01:40:56.870Z,7.63
2019-01-24T01:43:25.292Z,7.70
2019-01-24T01:45:52.606Z,7.67
2019-01-24T01:48:19.814Z,7.53
2019-01-24T01:50:46.926Z,7.73
2019-01-24T01:53:14.142Z,6.90
2019-01-24T01:55:42.352Z,6.97
2019-01-24T01:58:09.683Z,7.53
2019-01-24T02:00:37.034Z,7.10
2019-01-24T02:03:05.555Z,6.90
2019-01-24T02:05:34.644Z,7.17
2019-01-24T02:08:01.986Z,6.53
2019-01-24T02:10:29.126Z,6.93
2019-01-24T02:12:56.385Z,5.87
2019-01-24T02:15:23.832Z,6.40
2019-01-24T02:17:51.091Z,6.10
2019-01-24T02:20:20.079Z,5.87
2019-01-24T02:22:47.280Z,5.73
2019-01-24T02:25:14.396Z,5.47
2019-01-24T02:27:41.613Z,6.10
2019-01-24T02:30:12.567Z,6.20
2019-01-24T02:32:39.677Z,6.63
2019-01-24T02:35:07.688Z,6.03
2019-01-24T02:37:34.796Z,6.40
2019-01-24T02:40:02.296Z,4.93
2019-01-24T02:42:29.405Z,5.30
2019-01-24T02:44:56.517Z,5.87
2019-01-24T02:47:23.625Z,6.00
2019-01-24T02:49:50.726Z,5.33
2019-01-24T02:52:17.870Z,5.10
2019-01-24T02:54:44.999Z,5.20
2019-01-24T02:57:12.101Z,5.30
2019-01-24T02:59:39.201Z,5.30
2019-01-24T03:02:06.350Z,5.93
2019-01-24T03:04:35.751Z,6.43
2019-01-24T03:07:03.293Z,5.90
2019-01-24T03:09:30.391Z,5.03
2019-01-24T03:11:57.524Z,5.00
2019-01-24T03:14:24.629Z,4.90
2019-01-24T03:16:51.730Z,5.77
2019-01-24T03:19:18.833Z,6.03
2019-01-24T03:21:45.944Z,5.60
2019-01-24T03:24:13.053Z,5.90
2019-01-24T03:26:40.152Z,5.57
2019-01-24T03:29:07.258Z,5.67
2019-01-24T03:31:34.364Z,5.30
2019-01-24T03:34:01.480Z,5.70
2019-01-24T03:36:28.581Z,5.63
2019-01-24T03:38:55.708Z,5.80
2019-01-24T03:41:22.809Z,5.77
2019-01-24T03:43:49.916Z,5.13
2019-01-24T03:46:17.014Z,4.90
2019-01-24T03:48:44.124Z,5.57
2019-01-24T03:51:11.235Z,4.90
2019-01-24T03:53:38.355Z,4.77
2019-01-24T03:56:05.470Z,5.37
2019-01-24T03:58:32.573Z,4.97
2019-01-24T04:00:59.676Z,5.60
2019-01-24T04:03:26.778Z,5.00
2019-01-24T04:05:53.914Z,5.03
2019-01-24T04:08:21.045Z,5.17
2019-01-24T04:10:48.182Z,5.83
2019-01-24T04:13:15.293Z,6.53
2019-01-24T04:15:42.411Z,4.97
2019-01-24T04:18:09.515Z,5.30
2019-01-24T04:20:36.620Z,5.90
2019-01-24T04:23:03.733Z,6.20
2019-01-24T04:25:30.847Z,5.53
2019-01-24T04:27:57.957Z,6.40
2019-01-24T04:30:25.062Z,6.03
2019-01-24T04:32:52.171Z,6.23
2019-01-24T04:35:20.288Z,5.67
2019-01-24T04:37:47.627Z,5.50
2019-01-24T04:40:15.803Z,5.60
2019-01-24T04:42:42.962Z,5.23
2019-01-24T04:45:10.980Z,4.87
2019-01-24T04:47:38.091Z,5.50
2019-01-24T04:50:05.809Z,5.03
2019-01-24T04:52:32.915Z,5.83
2019-01-24T04:55:00.026Z,5.43
2019-01-24T04:57:27.149Z,5.27
2019-01-24T04:59:54.245Z,5.33
2019-01-24T05:02:21.350Z,5.63
2019-01-24T05:04:48.453Z,5.83
2019-01-24T05:07:15.593Z,5.00
2019-01-24T05:09:42.679Z,5.37
2019-01-24T05:12:09.777Z,4.93
2019-01-24T05:14:36.894Z,5.33
2019-01-24T05:17:04.007Z,6.20
2019-01-24T05:19:31.107Z,5.23
2019-01-24T05:21:58.212Z,5.43
2019-01-24T05:24:25.384Z,5.57
2019-01-24T05:26:52.485Z,5.70
2019-01-24T05:29:19.585Z,4.90
2019-01-24T05:31:46.698Z,5.70
2019-01-24T05:34:13.856Z,5.77
2019-01-24T05:36:41.130Z,4.90
2019-01-24T05:39:09.518Z,4.77
2019-01-24T05:41:36.761Z,5.53
2019-01-24T05:44:05.704Z,5.13
2019-01-24T05:46:33.045Z,5.90
2019-01-24T05:49:02.008Z,5.43
2019-01-24T05:51:29.289Z,5.43
2019-01-24T05:53:57.602Z,5.47
2019-01-24T05:56:24.876Z,5.40
2019-01-24T05:58:53.958Z,5.40
2019-01-24T06:01:21.602Z,5.33
2019-01-24T06:03:48.761Z,6.20
2019-01-24T06:06:15.873Z,5.30
2019-01-24T06:08:43.145Z,5.00
2019-01-24T06:11:10.300Z,4.63
2019-01-24T06:13:37.528Z,5.43
2019-01-24T06:16:04.784Z,5.53
2019-01-24T06:18:32.158Z,5.07
2019-01-24T06:21:01.273Z,5.87
2019-01-24T06:23:28.380Z,5.37
2019-01-24T06:25:55.473Z,5.27
2019-01-24T06:28:22.584Z,4.73
2019-01-24T06:30:49.951Z,5.03
2019-01-24T06:33:19.881Z,5.73
2019-01-24T06:35:48.905Z,6.03
2019-01-24T06:38:16.312Z,5.90
2019-01-24T06:40:43.552Z,6.20
2019-01-24T06:43:10.815Z,6.07
2019-01-24T06:45:38.059Z,5.07
2019-01-24T06:48:06.512Z,4.67
2019-01-24T06:50:33.909Z,5.27
2019-01-24T06:53:01.029Z,5.50
2019-01-24T06:55:28.644Z,7.03
2019-01-24T06:57:57.660Z,4.97
2019-01-24T07:00:25.078Z,5.53
2019-01-24T07:02:54.168Z,5.93
2019-01-24T07:05:23.263Z,6.83
2019-01-24T07:07:52.304Z,5.50
2019-01-24T07:10:20.485Z,5.27
2019-01-24T07:12:51.333Z,5.73
2019-01-24T07:15:20.063Z,5.70
2019-01-24T07:17:47.220Z,5.60
2019-01-24T07:20:14.974Z,5.97
2019-01-24T07:22:42.260Z,7.00
2019-01-24T07:25:12.456Z,5.80
2019-01-24T07:27:39.738Z,5.67
2019-01-24T07:30:09.543Z,5.97
2019-01-24T07:32:38.582Z,6.77
2019-01-24T07:35:08.215Z,6.17
2019-01-24T07:37:35.568Z,5.83
2019-01-24T07:40:04.875Z,6.80
2019-01-24T07:42:31.996Z,6.50
2019-01-24T07:44:59.095Z,6.07
2019-01-24T07:47:26.447Z,6.30
2019-01-24T07:49:53.716Z,6.90
2019-01-24T07:52:21.036Z,7.17
2019-01-24T07:54:48.406Z,6.17
2019-01-24T07:57:17.327Z,6.30
2019-01-24T07:59:44.483Z,6.73
2019-01-24T08:02:11.599Z,6.13
2019-01-24T08:04:38.700Z,6.10
2019-01-24T08:07:07.070Z,6.37
2019-01-24T08:09:34.367Z,7.20
2019-01-24T08:12:01.538Z,6.57
2019-01-24T08:14:30.664Z,6.27
2019-01-24T08:16:58.085Z,6.03
2019-01-24T08:19:26.572Z,6.50
2019-01-24T08:21:53.925Z,7.00
2019-01-24T08:24:21.145Z,5.50
2019-01-24T08:26:48.432Z,6.17
2019-01-24T08:29:16.981Z,6.33
2019-01-24T08:31:44.376Z,6.77
2019-01-24T08:34:13.307Z,6.70
2019-01-24T08:36:40.708Z,6.33
2019-01-24T08:39:08.934Z,6.67
2019-01-24T08:41:36.138Z,6.60
2019-01-24T08:44:05.249Z,7.27
2019-01-24T08:46:34.178Z,6.97
2019-01-24T08:49:01.564Z,6.43
2019-01-24T08:51:29.948Z,7.00
2019-01-24T08:53:58.998Z,7.33
2019-01-24T08:56:27.231Z,7.13
2019-01-24T08:58:54.610Z,6.87
2019-01-24T09:01:21.763Z,8.47
2019-01-24T09:03:49.216Z,7.20
2019-01-24T09:06:22.539Z,8.73
2019-01-24T09:08:47.361Z,7.23
2019-01-24T09:11:14.459Z,8.00
2019-01-24T09:13:41.567Z,8.73
2019-01-24T09:16:08.680Z,8.37
2019-01-24T09:18:35.813Z,7.50
2019-01-24T09:21:03.429Z,8.47
2019-01-24T09:23:32.981Z,7.40
2019-01-24T09:26:00.143Z,7.67
2019-01-24T09:28:27.283Z,7.00
2019-01-24T09:30:54.389Z,7.93
2019-01-24T09:33:22.896Z,6.83
2019-01-24T09:35:50.186Z,9.03
2019-01-24T09:38:17.675Z,8.50
2019-01-24T09:40:45.996Z,8.63
2019-01-24T09:43:14.525Z,8.57
2019-01-24T09:45:44.561Z,9.70
2019-01-24T09:48:13.751Z,8.80
2019-01-24T09:50:42.855Z,10.07
2019-01-24T09:53:09.983Z,9.57
2019-01-24T09:55:38.998Z,9.30
2019-01-24T09:58:07.266Z,10.50
2019-01-24T10:00:36.605Z,9.63
2019-01-24T10:03:04.589Z,10.13
2019-01-24T10:05:32.096Z,8.87
2019-01-24T10:07:59.544Z,10.00
2019-01-24T10:10:27.168Z,8.50
2019-01-24T10:12:55.435Z,9.40
2019-01-24T10:15:22.897Z,9.17
2019-01-24T10:17:51.991Z,9.33
2019-01-24T10:20:21.495Z,9.00
2019-01-24T10:22:49.763Z,9.90
2019-01-24T10:25:24.330Z,9.30
2019-01-24T10:27:52.755Z,10.33
2019-01-24T10:30:21.072Z,9.23
2019-01-24T10:32:48.400Z,10.17
2019-01-24T10:35:15.601Z,9.57
2019-01-24T10:37:43.102Z,9.50
2019-01-24T10:40:13.664Z,11.33
2019-01-24T10:42:40.881Z,9.57
2019-01-24T10:45:10.652Z,10.40
2019-01-24T10:47:37.967Z,10.43
2019-01-24T10:50:06.570Z,11.60
2019-01-24T10:52:33.682Z,11.70
2019-01-24T10:55:00.794Z,11.57
2019-01-24T10:57:27.898Z,11.50
2019-01-24T10:59:58.024Z,12.53
2019-01-24T11:02:25.375Z,11.87
2019-01-24T11:04:54.327Z,10.67
2019-01-24T11:07:21.957Z,10.70
2019-01-24T11:09:50.988Z,11.70
2019-01-24T11:12:21.126Z,11.80
2019-01-24T11:14:48.379Z,10.33
2019-01-24T11:17:19.051Z,11.20
2019-01-24T11:19:46.299Z,12.50
2019-01-24T11:22:13.495Z,12.10
2019-01-24T11:24:41.748Z,11.53
2019-01-24T11:27:09.248Z,11.97
2019-01-24T11:29:39.072Z,13.33
2019-01-24T11:32:06.413Z,12.77
2019-01-24T11:34:33.523Z,12.60
2019-01-24T11:37:00.624Z,13.57
2019-01-24T11:39:27.723Z,13.00
2019-01-24T11:41:54.829Z,12.53
2019-01-24T11:44:21.995Z,11.97
2019-01-24T11:46:51.752Z,12.27
2019-01-24T11:49:18.857Z,12.20
2019-01-24T11:51:45.963Z,12.30
2019-01-24T11:54:13.058Z,12.10
2019-01-24T11:56:41.311Z,12.43
2019-01-24T11:59:11.355Z,12.97
2019-01-24T12:01:41.352Z,10.60
2019-01-24T12:04:10.589Z,10.70
2019-01-24T12:06:37.813Z,9.93
2019-01-24T12:09:07.241Z,10.17
2019-01-24T12:11:37.341Z,11.00
2019-01-24T12:14:04.435Z,11.33
2019-01-24T12:16:31.537Z,11.13
2019-01-24T12:18:58.635Z,12.17
2019-01-24T12:21:25.769Z,10.60
2019-01-24T12:23:52.859Z,10.67
2019-01-24T12:26:20.028Z,10.37
2019-01-24T12:28:47.148Z,11.20
2019-01-24T12:31:14.349Z,11.87
2019-01-24T12:33:41.607Z,10.17
2019-01-24T12:36:08.693Z,11.60
2019-01-24T12:38:35.816Z,9.83
2019-01-24T12:41:02.931Z,11.57
2019-01-24T12:43:32.812Z,10.90
2019-01-24T12:45:59.912Z,10.57
2019-01-24T12:48:27.039Z,9.80
2019-01-24T12:51:00.091Z,11.03
2019-01-24T12:53:29.907Z,9.67
2019-01-24T12:55:57.000Z,9.93
2019-01-24T12:58:26.380Z,8.73
2019-01-24T13:00:53.488Z,10.97
2019-01-24T13:03:23.735Z,10.90
2019-01-24T13:05:50.850Z,10.17
2019-01-24T13:08:17.956Z,10.47
2019-01-24T13:10:45.085Z,9.80
2019-01-24T13:13:12.204Z,12.57
2019-01-24T13:15:39.395Z,10.90
2019-01-24T13:18:06.639Z,10.63
2019-01-24T13:20:33.764Z,11.03
2019-01-24T13:23:01.123Z,10.57
2019-01-24T13:25:35.940Z,10.03
2019-01-24T13:28:04.512Z,9.97
2019-01-24T13:30:33.682Z,9.33
2019-01-24T13:33:01.256Z,10.33
2019-01-24T13:35:29.468Z,10.70
2019-01-24T13:37:58.600Z,10.60
2019-01-24T13:40:27.786Z,11.43
2019-01-24T13:42:56.949Z,11.03
2019-01-24T13:45:26.364Z,9.73
2019-01-24T13:47:53.827Z,10.60
2019-01-24T13:50:21.151Z,10.63
2019-01-24T13:52:48.506Z,10.10
2019-01-24T13:55:16.807Z,11.30
2019-01-24T13:57:44.426Z,9.83
2019-01-24T14:00:16.228Z,9.50
2019-01-24T14:02:43.427Z,9.47
2019-01-24T14:05:13.000Z,9.50
2019-01-24T14:07:40.209Z,9.37
2019-01-24T14:10:08.643Z,9.67
2019-01-24T14:12:35.736Z,9.93
2019-01-24T14:15:03.748Z,9.80
2019-01-24T14:17:30.849Z,10.07
2019-01-24T14:19:57.947Z,9.73
2019-01-24T14:22:25.077Z,10.37
2019-01-24T14:24:52.168Z,10.10
2019-01-24T14:27:19.267Z,9.33
2019-01-24T14:29:46.367Z,8.47
2019-01-24T14:32:13.465Z,9.57
2019-01-24T14:34:40.924Z,10.33
2019-01-24T14:37:08.332Z,10.80
2019-01-24T14:39:35.413Z,10.47
2019-01-24T14:42:02.506Z,10.80
2019-01-24T14:44:29.596Z,10.17
2019-01-24T14:46:56.705Z,9.50
2019-01-24T14:49:23.797Z,10.77
2019-01-24T14:51:50.891Z,10.50
2019-01-24T14:54:17.991Z,10.43
2019-01-24T14:56:45.088Z,9.90
2019-01-24T14:59:12.349Z,10.30
2019-01-24T15:01:39.608Z,9.77
2019-01-24T15:04:06.977Z,9.37
2019-01-24T15:06:35.409Z,9.70
2019-01-24T15:09:06.880Z,9.00
2019-01-24T15:11:34.000Z,8.70
2019-01-24T15:14:01.095Z,8.73
2019-01-24T15:16:28.194Z,9.30
2019-01-24T15:18:55.319Z,9.20
2019-01-24T15:21:22.525Z,9.33
2019-01-24T15:23:51.060Z,9.37
2019-01-24T15:26:18.221Z,10.23
2019-01-24T15:28:45.407Z,10.00
2019-01-24T15:31:13.735Z,10.30
2019-01-24T15:33:42.837Z,10.03
2019-01-24T15:36:11.992Z,8.90
2019-01-24T15:38:39.184Z,10.87
2019-01-24T15:41:06.425Z,9.53
2019-01-24T15:43:33.773Z,9.70
2019-01-24T15:46:01.271Z,8.60
2019-01-24T15:48:28.468Z,9.60
2019-01-24T15:50:55.777Z,10.00
2019-01-24T15:53:23.987Z,9.03
2019-01-24T15:55:51.093Z,9.33
2019-01-24T15:58:18.474Z,10.43
2019-01-24T16:00:47.520Z,9.90
2019-01-24T16:03:14.908Z,9.03
2019-01-24T16:05:42.067Z,10.90
2019-01-24T16:08:09.305Z,9.93
2019-01-24T16:10:36.541Z,10.53
2019-01-24T16:13:04.395Z,10.33
2019-01-24T16:15:34.555Z,11.50
2019-01-24T16:18:02.102Z,9.60
2019-01-24T16:20:29.915Z,8.53
2019-01-24T16:22:58.332Z,9.70
2019-01-24T16:25:27.324Z,10.30
2019-01-24T16:27:56.424Z,9.43
2019-01-24T16:30:25.926Z,10.53
2019-01-24T16:32:53.385Z,10.13
2019-01-24T16:35:22.778Z,9.47
2019-01-24T16:37:50.080Z,8.90
2019-01-24T16:40:18.534Z,9.83
2019-01-24T16:42:45.833Z,9.33
2019-01-24T16:45:15.583Z,9.47
2019-01-24T16:47:42.664Z,9.20
2019-01-24T16:50:10.600Z,8.90
2019-01-24T16:52:37.707Z,10.20
2019-01-24T16:55:06.857Z,10.87
2019-01-24T16:57:34.095Z,10.10
2019-01-24T17:00:01.193Z,9.87
2019-01-24T17:02:28.293Z,9.13
2019-01-24T17:04:55.436Z,8.93
2019-01-24T17:07:22.524Z,7.70
2019-01-24T17:09:49.645Z,8.20
2019-01-24T17:12:16.774Z,9.13
2019-01-24T17:14:43.873Z,9.23
2019-01-24T17:17:10.975Z,9.57
2019-01-24T17:19:38.085Z,9.07
2019-01-24T17:22:05.390Z,9.17
2019-01-24T17:24:32.527Z,9.83
2019-01-24T17:26:59.636Z,9.20
2019-01-24T17:29:26.764Z,9.97
2019-01-24T17:31:53.874Z,9.50
2019-01-24T17:34:20.998Z,9.83
2019-01-24T17:36:48.111Z,9.43
2019-01-24T17:39:15.224Z,9.13
2019-01-24T17:41:42.732Z,10.17
2019-01-24T17:44:11.240Z,10.23
2019-01-24T17:46:38.765Z,10.40
2019-01-24T17:49:06.029Z,10.37
2019-01-24T17:51:33.188Z,9.93
2019-01-24T17:54:02.345Z,11.03
2019-01-24T17:56:29.457Z,9.83
2019-01-24T17:58:56.784Z,11.13
2019-01-24T18:01:23.945Z,9.90
2019-01-24T18:03:51.088Z,9.80
2019-01-24T18:06:18.317Z,9.47
2019-01-24T18:08:45.437Z,9.83
2019-01-24T18:11:12.616Z,9.43
2019-01-24T18:13:39.730Z,10.53
2019-01-24T18:16:06.849Z,9.97
2019-01-24T18:18:33.969Z,9.27
2019-01-24T18:21:01.117Z,11.53
2019-01-24T18:23:28.292Z,10.57
2019-01-24T18:25:55.394Z,12.00
2019-01-24T18:28:22.492Z,10.40
2019-01-24T18:30:49.624Z,10.87
2019-01-24T18:33:16.843Z,10.70
2019-01-24T18:35:43.958Z,10.13
2019-01-24T18:38:11.069Z,10.50
2019-01-24T18:40:38.230Z,10.30
2019-01-24T18:43:15.788Z,10.03
2019-01-24T18:45:45.461Z,9.97
2019-01-24T18:48:12.793Z,10.93
2019-01-24T18:50:39.993Z,11.33
2019-01-24T18:53:07.108Z,9.90
2019-01-24T18:55:34.225Z,9.93
2019-01-24T18:58:01.419Z,10.33
2019-01-24T19:00:33.906Z,9.90
2019-01-24T19:03:01.250Z,9.90
2019-01-24T19:05:28.576Z,9.43
2019-01-24T19:07:55.730Z,11.03
2019-01-24T19:10:22.840Z,10.60
2019-01-24T19:12:49.957Z,10.10
2019-01-24T19:15:17.215Z,11.03
2019-01-24T19:17:44.760Z,10.93
2019-01-24T19:20:12.345Z,9.30
2019-01-24T19:22:39.699Z,10.70
2019-01-24T19:25:08.028Z,10.33
2019-01-24T19:27:35.153Z,11.30
2019-01-24T19:30:04.295Z,11.10
2019-01-24T19:32:31.601Z,10.73
2019-01-24T19:34:58.747Z,9.13
2019-01-24T19:37:26.237Z,9.80
2019-01-24T19:39:53.419Z,10.90
2019-01-24T19:42:20.578Z,10.60
2019-01-24T19:44:47.709Z,10.67
2019-01-24T19:47:14.937Z,10.07
2019-01-24T19:49:42.163Z,10.53
2019-01-24T19:52:09.348Z,12.63
2019-01-24T19:54:36.542Z,13.23
2019-01-24T19:57:03.875Z,12.67
2019-01-24T19:59:31.155Z,13.67
2019-01-24T20:01:58.295Z,12.07
2019-01-24T20:04:25.433Z,11.73
2019-01-24T20:06:52.749Z,37.67
2019-01-24T20:09:24.073Z,17.53
2019-01-24T20:11:54.274Z,22.27
2019-01-24T20:14:31.835Z,18.33
2019-01-24T20:17:01.850Z,18.23
2019-01-24T20:19:29.004Z,17.37
2019-01-24T20:21:58.653Z,16.47
2019-01-24T20:24:25.877Z,14.90
2019-01-24T20:26:53.047Z,15.67
2019-01-24T20:29:20.155Z,18.63
2019-01-24T20:31:47.409Z,16.60
2019-01-24T20:34:14.494Z,19.33
2019-01-24T20:36:41.939Z,14.80
2019-01-24T20:39:09.326Z,16.90
2019-01-24T20:41:36.517Z,15.13
2019-01-24T20:44:03.912Z,13.47
2019-01-24T20:46:33.142Z,14.73
2019-01-24T20:49:03.213Z,15.17
2019-01-24T20:51:33.422Z,16.37
2019-01-24T20:54:03.156Z,13.90
2019-01-24T20:56:30.281Z,11.83
2019-01-24T20:58:57.467Z,11.90
2019-01-24T21:01:27.484Z,13.30
2019-01-24T21:03:55.459Z,14.37
2019-01-24T21:06:22.766Z,11.23
2019-01-24T21:08:49.880Z,12.70
2019-01-24T21:11:17.023Z,12.67
2019-01-24T21:13:44.207Z,12.50
2019-01-24T21:16:11.339Z,11.47
2019-01-24T21:19:03.526Z,11.63
2019-01-24T21:21:37.165Z,11.40
2019-01-24T21:24:04.378Z,12.27
2019-01-24T21:26:31.558Z,13.60
2019-01-24T21:29:00.976Z,13.00
2019-01-24T21:31:28.072Z,13.07
2019-01-24T21:33:55.173Z,13.57
2019-01-24T21:36:22.676Z,13.17
2019-01-24T21:38:49.803Z,12.87
2019-01-24T21:41:16.909Z,10.63
2019-01-24T21:43:45.998Z,11.90
2019-01-24T21:46:13.136Z,11.20
2019-01-24T21:48:42.684Z,12.07
2019-01-24T21:51:11.655Z,11.23
2019-01-24T21:53:38.928Z,11.37
2019-01-24T21:56:06.023Z,9.73
2019-01-24T21:58:35.179Z,11.27
2019-01-24T22:01:02.486Z,13.13
2019-01-24T22:03:29.594Z,12.43
2019-01-24T22:05:56.715Z,15.10
2019-01-24T22:08:25.277Z,13.07
2019-01-24T22:10:52.559Z,11.13
2019-01-24T22:13:19.680Z,10.73
2019-01-24T22:15:46.784Z,11.80
2019-01-24T22:18:13.938Z,14.80
2019-01-24T22:20:41.028Z,13.53
2019-01-24T22:23:08.145Z,13.10
2019-01-24T22:25:35.348Z,12.20
2019-01-24T22:28:02.551Z,10.07
2019-01-24T22:30:37.870Z,10.57
2019-01-24T22:33:05.480Z,10.80
2019-01-24T22:35:32.615Z,9.47
2019-01-24T22:37:59.816Z,8.37
2019-01-24T22:40:26.926Z,8.63
2019-01-24T22:42:54.044Z,10.67
2019-01-24T22:45:22.490Z,9.47
2019-01-24T22:47:51.492Z,9.53
2019-01-24T22:50:20.548Z,11.47
2019-01-24T22:52:47.938Z,9.77
2019-01-24T22:55:15.419Z,11.00
2019-01-24T22:57:42.829Z,8.40
2019-01-24T23:01:01.990Z,9.60
2019-01-24T23:03:50.708Z,11.53
2019-01-24T23:06:17.984Z,10.70
2019-01-24T23:08:46.961Z,9.27
2019-01-24T23:11:14.304Z,7.80
2019-01-24T23:13:41.650Z,7.37
2019-01-24T23:16:10.112Z,8.20
2019-01-24T23:18:37.375Z,8.73
2019-01-24T23:21:05.031Z,9.37
2019-01-24T23:23:32.308Z,9.10
2019-01-24T23:26:00.521Z,7.13
2019-01-24T23:28:27.656Z,8.23
2019-01-24T23:30:54.763Z,8.07
2019-01-24T23:33:21.865Z,7.60
2019-01-24T23:35:49.391Z,7.30
2019-01-24T23:38:17.843Z,7.53
2019-01-24T23:40:45.148Z,7.17
2019-01-24T23:43:12.368Z,6.23
2019-01-24T23:45:39.591Z,7.43
2019-01-24T23:48:06.733Z,7.03
2019-01-24T23:50:35.728Z,7.07
2019-01-24T23:53:04.241Z,6.90
2019-01-24T23:55:33.296Z,7.97
2019-01-24T23:58:03.308Z,6.70
